Terminal Aerodrome Forecast
Issued by NWS Cleveland, OH

Home | Current Version | Previous Version | Graphics & Text | Print | Product List | Glossary Off
Versions: 1 2 3 4 5 6 7 8 9 10 11 12 13 14 15 16 17 18

000
FTUS41 KCLE 061138
TAFCLE
TAF
KCLE 061138Z 0612/0718 VRB03KT P6SM SCT100 BKN250
     FM061600 34006KT P6SM BKN250
     FM062100 36006KT P6SM SCT250
     FM070100 18004KT P6SM SKC
     FM071100 20010KT P6SM SCT100 BKN250=

USA.gov is the U.S. government's official web portal to all federal, state and local government web resources and services.